sensor_id;sensor_type;location;lat;lon;timestamp;pressure;altitude;pressure_sealevel;temperature;humidity
23172;BME280;11754;42.664;23.594;2023-07-31T00:01:35;95048.91;;;22.27;73.03
23172;BME280;11754;42.664;23.594;2023-07-31T00:04:00;95057.59;;;22.35;72.57
23172;BME280;11754;42.664;23.594;2023-07-31T00:06:25;95047.13;;;22.33;72.62
23172;BME280;11754;42.664;23.594;2023-07-31T00:08:51;95052.16;;;22.29;72.83
23172;BME280;11754;42.664;23.594;2023-07-31T00:11:16;95061.59;;;22.32;72.79
23172;BME280;11754;42.664;23.594;2023-07-31T00:13:41;95060.47;;;22.28;73.03
23172;BME280;11754;42.664;23.594;2023-07-31T00:16:06;95053.75;;;22.25;73.48
23172;BME280;11754;42.664;23.594;2023-07-31T00:18:32;95050.53;;;22.28;73.42
23172;BME280;11754;42.664;23.594;2023-07-31T00:20:57;95053.66;;;22.20;73.45
23172;BME280;11754;42.664;23.594;2023-07-31T00:23:22;95049.97;;;22.26;74.32
23172;BME280;11754;42.664;23.594;2023-07-31T00:25:48;95060.06;;;22.36;75.50
23172;BME280;11754;42.664;23.594;2023-07-31T00:28:13;95060.91;;;22.42;74.91
23172;BME280;11754;42.664;23.594;2023-07-31T00:30:39;95064.97;;;22.44;73.29
23172;BME280;11754;42.664;23.594;2023-07-31T00:33:05;95047.44;;;22.37;73.04
23172;BME280;11754;42.664;23.594;2023-07-31T00:35:30;95051.78;;;22.43;72.74
23172;BME280;11754;42.664;23.594;2023-07-31T00:37:58;95056.16;;;22.49;73.16
23172;BME280;11754;42.664;23.594;2023-07-31T00:40:24;95040.97;;;22.60;74.10
23172;BME280;11754;42.664;23.594;2023-07-31T00:42:49;95033.72;;;22.60;73.61
23172;BME280;11754;42.664;23.594;2023-07-31T00:45:14;95035.41;;;22.66;72.83
23172;BME280;11754;42.664;23.594;2023-07-31T00:47:40;95036.78;;;22.69;72.98
23172;BME280;11754;42.664;23.594;2023-07-31T00:50:06;95020.56;;;22.64;73.71
23172;BME280;11754;42.664;23.594;2023-07-31T00:52:32;95007.91;;;22.59;74.04
23172;BME280;11754;42.664;23.594;2023-07-31T00:54:58;94997.66;;;22.56;74.17
23172;BME280;11754;42.664;23.594;2023-07-31T00:57:23;94998.16;;;22.53;73.66
23172;BME280;11754;42.664;23.594;2023-07-31T00:59:49;95005.59;;;22.46;74.04
23172;BME280;11754;42.664;23.594;2023-07-31T01:02:14;94996.38;;;22.37;73.86
23172;BME280;11754;42.664;23.594;2023-07-31T01:04:42;95004.13;;;22.33;73.36
23172;BME280;11754;42.664;23.594;2023-07-31T01:09:54;95026.31;;;22.23;74.79
23172;BME280;11754;42.664;23.594;2023-07-31T01:12:22;95024.19;;;22.25;75.47
23172;BME280;11754;42.664;23.594;2023-07-31T01:17:29;95003.25;;;22.27;76.76
23172;BME280;11754;42.664;23.594;2023-07-31T01:20:01;94986.06;;;22.28;76.60
23172;BME280;11754;42.664;23.594;2023-07-31T01:27:55;94988.19;;;22.26;76.86
23172;BME280;11754;42.664;23.594;2023-07-31T01:30:27;94990.31;;;22.24;76.97
23172;BME280;11754;42.664;23.594;2023-07-31T01:32:54;94990.25;;;22.19;77.09
23172;BME280;11754;42.664;23.594;2023-07-31T01:35:21;94989.69;;;22.17;76.92
23172;BME280;11754;42.664;23.594;2023-07-31T01:37:46;94977.06;;;22.18;77.98
23172;BME280;11754;42.664;23.594;2023-07-31T01:40:11;94992.94;;;22.19;78.22
23172;BME280;11754;42.664;23.594;2023-07-31T01:42:37;94990.06;;;22.04;77.29
23172;BME280;11754;42.664;23.594;2023-07-31T01:45:02;94984.06;;;21.97;77.04
23172;BME280;11754;42.664;23.594;2023-07-31T01:47:28;94983.56;;;22.00;77.25
23172;BME280;11754;42.664;23.594;2023-07-31T01:49:53;94992.66;;;21.99;77.93
23172;BME280;11754;42.664;23.594;2023-07-31T01:52:18;94981.91;;;21.99;77.89
23172;BME280;11754;42.664;23.594;2023-07-31T01:54:44;94970.53;;;21.92;77.83
23172;BME280;11754;42.664;23.594;2023-07-31T01:57:09;94980.78;;;21.95;77.83
23172;BME280;11754;42.664;23.594;2023-07-31T01:59:34;94988.78;;;21.90;77.84
23172;BME280;11754;42.664;23.594;2023-07-31T02:02:00;94999.03;;;21.93;77.89
23172;BME280;11754;42.664;23.594;2023-07-31T02:04:25;94992.41;;;21.78;77.57
23172;BME280;11754;42.664;23.594;2023-07-31T02:06:50;95010.13;;;21.79;77.34
23172;BME280;11754;42.664;23.594;2023-07-31T02:09:16;95001.88;;;21.47;78.29
23172;BME280;11754;42.664;23.594;2023-07-31T02:11:41;94997.16;;;21.38;78.77
23172;BME280;11754;42.664;23.594;2023-07-31T02:14:06;94996.91;;;21.22;79.41
23172;BME280;11754;42.664;23.594;2023-07-31T02:16:32;95011.22;;;21.11;79.61
23172;BME280;11754;42.664;23.594;2023-07-31T02:18:57;95005.09;;;20.99;80.31
23172;BME280;11754;42.664;23.594;2023-07-31T02:21:22;95029.81;;;21.01;80.64
23172;BME280;11754;42.664;23.594;2023-07-31T02:23:48;95013.72;;;21.01;80.38
23172;BME280;11754;42.664;23.594;2023-07-31T02:26:13;95022.25;;;20.98;80.79
23172;BME280;11754;42.664;23.594;2023-07-31T02:28:38;95011.94;;;20.90;80.90
23172;BME280;11754;42.664;23.594;2023-07-31T02:31:04;95026.88;;;20.85;81.51
23172;BME280;11754;42.664;23.594;2023-07-31T02:33:29;95012.88;;;20.83;81.50
23172;BME280;11754;42.664;23.594;2023-07-31T02:35:54;95021.78;;;20.72;81.78
23172;BME280;11754;42.664;23.594;2023-07-31T02:38:20;95040.09;;;20.75;82.26
23172;BME280;11754;42.664;23.594;2023-07-31T02:40:45;95037.53;;;20.69;82.55
23172;BME280;11754;42.664;23.594;2023-07-31T02:43:10;95036.53;;;20.58;83.52
23172;BME280;11754;42.664;23.594;2023-07-31T02:45:36;95027.25;;;20.49;83.72
23172;BME280;11754;42.664;23.594;2023-07-31T02:48:01;95026.66;;;20.47;83.74
23172;BME280;11754;42.664;23.594;2023-07-31T02:50:26;95024.78;;;20.47;84.02
23172;BME280;11754;42.664;23.594;2023-07-31T02:52:53;95028.19;;;20.43;84.96
23172;BME280;11754;42.664;23.594;2023-07-31T02:55:19;95029.72;;;20.38;85.09
23172;BME280;11754;42.664;23.594;2023-07-31T02:57:44;95034.41;;;20.31;85.80
23172;BME280;11754;42.664;23.594;2023-07-31T03:00:09;95023.69;;;20.31;86.20
23172;BME280;11754;42.664;23.594;2023-07-31T03:02:35;95010.75;;;20.28;86.34
23172;BME280;11754;42.664;23.594;2023-07-31T03:05:00;95033.72;;;20.24;86.89
23172;BME280;11754;42.664;23.594;2023-07-31T03:07:26;95025.47;;;20.14;87.47
23172;BME280;11754;42.664;23.594;2023-07-31T03:09:51;95028.25;;;20.19;87.13
23172;BME280;11754;42.664;23.594;2023-07-31T03:12:16;95038.94;;;20.19;87.06
23172;BME280;11754;42.664;23.594;2023-07-31T03:14:42;95044.94;;;20.09;87.63
23172;BME280;11754;42.664;23.594;2023-07-31T03:17:07;95034.03;;;19.87;88.67
23172;BME280;11754;42.664;23.594;2023-07-31T03:19:32;95042.19;;;19.81;89.78
23172;BME280;11754;42.664;23.594;2023-07-31T03:21:59;95037.06;;;19.91;89.34
23172;BME280;11754;42.664;23.594;2023-07-31T03:24:25;95024.56;;;19.97;89.06
23172;BME280;11754;42.664;23.594;2023-07-31T03:26:50;95041.69;;;19.96;89.43
23172;BME280;11754;42.664;23.594;2023-07-31T03:29:15;95035.53;;;19.95;89.67
23172;BME280;11754;42.664;23.594;2023-07-31T03:31:41;95039.81;;;19.96;89.86
23172;BME280;11754;42.664;23.594;2023-07-31T03:34:06;95043.91;;;19.99;89.94
23172;BME280;11754;42.664;23.594;2023-07-31T03:36:31;95046.69;;;20.04;89.84
23172;BME280;11754;42.664;23.594;2023-07-31T03:38:57;95050.63;;;20.13;89.51
23172;BME280;11754;42.664;23.594;2023-07-31T03:41:23;95045.97;;;20.20;89.44
23172;BME280;11754;42.664;23.594;2023-07-31T03:43:49;95044.06;;;20.32;88.88
23172;BME280;11754;42.664;23.594;2023-07-31T03:46:16;95053.09;;;20.55;88.57
23172;BME280;11754;42.664;23.594;2023-07-31T03:48:42;95052.22;;;20.66;88.37
23172;BME280;11754;42.664;23.594;2023-07-31T03:51:07;95058.38;;;20.78;87.60
23172;BME280;11754;42.664;23.594;2023-07-31T03:53:32;95056.91;;;20.87;87.06
23172;BME280;11754;42.664;23.594;2023-07-31T03:55:58;95051.00;;;21.02;86.66
23172;BME280;11754;42.664;23.594;2023-07-31T03:58:23;95063.31;;;21.15;86.07
23172;BME280;11754;42.664;23.594;2023-07-31T04:00:48;95057.63;;;21.28;85.63
23172;BME280;11754;42.664;23.594;2023-07-31T04:03:14;95052.78;;;21.42;84.96
23172;BME280;11754;42.664;23.594;2023-07-31T04:05:39;95062.38;;;21.55;84.14
23172;BME280;11754;42.664;23.594;2023-07-31T04:08:05;95056.41;;;21.53;82.79
23172;BME280;11754;42.664;23.594;2023-07-31T04:10:30;95057.16;;;21.65;82.66
23172;BME280;11754;42.664;23.594;2023-07-31T04:12:58;95068.53;;;21.72;81.80
23172;BME280;11754;42.664;23.594;2023-07-31T04:15:23;95067.31;;;21.80;81.21
23172;BME280;11754;42.664;23.594;2023-07-31T04:17:49;95076.66;;;21.94;81.04
23172;BME280;11754;42.664;23.594;2023-07-31T04:20:14;95076.97;;;21.98;80.28
23172;BME280;11754;42.664;23.594;2023-07-31T04:22:39;95077.59;;;22.05;79.93
23172;BME280;11754;42.664;23.594;2023-07-31T04:25:05;95077.50;;;22.17;79.28
23172;BME280;11754;42.664;23.594;2023-07-31T04:27:30;95073.03;;;22.22;78.93
23172;BME280;11754;42.664;23.594;2023-07-31T04:29:56;95080.16;;;22.34;78.22
23172;BME280;11754;42.664;23.594;2023-07-31T04:32:21;95067.47;;;22.29;77.83
23172;BME280;11754;42.664;23.594;2023-07-31T04:34:46;95070.53;;;22.38;77.28
23172;BME280;11754;42.664;23.594;2023-07-31T04:37:12;95076.53;;;22.45;77.21
23172;BME280;11754;42.664;23.594;2023-07-31T04:39:37;95077.47;;;22.55;76.67
23172;BME280;11754;42.664;23.594;2023-07-31T04:42:03;95068.84;;;22.53;76.57
23172;BME280;11754;42.664;23.594;2023-07-31T04:44:28;95054.28;;;22.49;76.52
23172;BME280;11754;42.664;23.594;2023-07-31T04:46:54;95072.41;;;22.59;76.39
23172;BME280;11754;42.664;23.594;2023-07-31T04:49:19;95064.91;;;22.61;76.25
23172;BME280;11754;42.664;23.594;2023-07-31T04:51:44;95065.22;;;22.65;76.01
23172;BME280;11754;42.664;23.594;2023-07-31T04:54:10;95064.38;;;22.64;76.17
23172;BME280;11754;42.664;23.594;2023-07-31T04:56:37;95071.91;;;22.89;75.89
23172;BME280;11754;42.664;23.594;2023-07-31T04:59:03;95072.78;;;23.17;75.36
23172;BME280;11754;42.664;23.594;2023-07-31T05:01:28;95074.88;;;23.42;74.55
23172;BME280;11754;42.664;23.594;2023-07-31T05:03:53;95064.91;;;23.69;73.56
23172;BME280;11754;42.664;23.594;2023-07-31T05:06:19;95068.81;;;23.94;72.99
23172;BME280;11754;42.664;23.594;2023-07-31T05:08:45;95072.16;;;24.11;72.31
23172;BME280;11754;42.664;23.594;2023-07-31T05:11:10;95070.59;;;24.20;71.96
23172;BME280;11754;42.664;23.594;2023-07-31T05:13:36;95049.53;;;24.12;71.54
23172;BME280;11754;42.664;23.594;2023-07-31T05:16:01;95072.00;;;24.28;71.06
23172;BME280;11754;42.664;23.594;2023-07-31T05:18:27;95066.25;;;24.14;71.19
23172;BME280;11754;42.664;23.594;2023-07-31T05:20:52;95062.41;;;24.00;71.76
23172;BME280;11754;42.664;23.594;2023-07-31T05:23:17;95067.81;;;24.05;71.69
23172;BME280;11754;42.664;23.594;2023-07-31T05:25:43;95060.81;;;24.04;71.75
23172;BME280;11754;42.664;23.594;2023-07-31T05:28:08;95063.94;;;23.86;71.59
23172;BME280;11754;42.664;23.594;2023-07-31T05:30:33;95062.81;;;23.77;71.03
23172;BME280;11754;42.664;23.594;2023-07-31T05:32:59;95070.00;;;23.39;71.66
23172;BME280;11754;42.664;23.594;2023-07-31T05:35:24;95048.47;;;23.39;71.21
23172;BME280;11754;42.664;23.594;2023-07-31T05:37:49;95053.84;;;23.39;71.84
23172;BME280;11754;42.664;23.594;2023-07-31T05:40:15;95059.94;;;23.56;70.98
23172;BME280;11754;42.664;23.594;2023-07-31T05:42:40;95057.03;;;23.31;71.99
23172;BME280;11754;42.664;23.594;2023-07-31T05:45:06;95057.53;;;23.00;72.03
23172;BME280;11754;42.664;23.594;2023-07-31T05:47:32;95058.81;;;22.93;72.63
23172;BME280;11754;42.664;23.594;2023-07-31T05:49:57;95060.34;;;22.89;73.07
23172;BME280;11754;42.664;23.594;2023-07-31T05:52:22;95058.69;;;23.05;72.27
23172;BME280;11754;42.664;23.594;2023-07-31T05:54:48;95064.91;;;23.10;71.70
23172;BME280;11754;42.664;23.594;2023-07-31T05:57:13;95056.31;;;23.13;72.06
23172;BME280;11754;42.664;23.594;2023-07-31T05:59:38;95066.75;;;23.05;71.61
23172;BME280;11754;42.664;23.594;2023-07-31T06:02:04;95058.44;;;23.11;72.39
23172;BME280;11754;42.664;23.594;2023-07-31T06:04:30;95060.75;;;23.30;71.92
23172;BME280;11754;42.664;23.594;2023-07-31T06:06:56;95059.16;;;23.29;71.30
23172;BME280;11754;42.664;23.594;2023-07-31T06:09:21;95057.94;;;23.14;70.25
23172;BME280;11754;42.664;23.594;2023-07-31T06:11:46;95061.75;;;23.18;70.26
23172;BME280;11754;42.664;23.594;2023-07-31T06:14:12;95058.72;;;23.10;70.80
23172;BME280;11754;42.664;23.594;2023-07-31T06:16:37;95063.22;;;23.31;70.69
23172;BME280;11754;42.664;23.594;2023-07-31T06:19:02;95052.44;;;23.63;70.54
23172;BME280;11754;42.664;23.594;2023-07-31T06:21:28;95057.72;;;23.85;69.38
23172;BME280;11754;42.664;23.594;2023-07-31T06:23:53;95060.56;;;24.11;67.16
23172;BME280;11754;42.664;23.594;2023-07-31T06:26:19;95064.19;;;24.32;66.33
23172;BME280;11754;42.664;23.594;2023-07-31T06:28:44;95068.59;;;24.43;65.47
23172;BME280;11754;42.664;23.594;2023-07-31T06:31:09;95065.31;;;23.93;65.94
23172;BME280;11754;42.664;23.594;2023-07-31T06:33:35;95060.72;;;23.89;66.72
23172;BME280;11754;42.664;23.594;2023-07-31T06:36:00;95059.72;;;24.00;65.82
23172;BME280;11754;42.664;23.594;2023-07-31T06:38:26;95073.59;;;23.82;66.54
23172;BME280;11754;42.664;23.594;2023-07-31T06:40:52;95052.16;;;23.65;66.00
23172;BME280;11754;42.664;23.594;2023-07-31T06:43:18;95066.84;;;23.47;66.23
23172;BME280;11754;42.664;23.594;2023-07-31T06:45:43;95070.31;;;23.74;66.08
23172;BME280;11754;42.664;23.594;2023-07-31T06:48:08;95067.81;;;24.05;65.80
23172;BME280;11754;42.664;23.594;2023-07-31T06:50:34;95070.56;;;24.15;64.70
23172;BME280;11754;42.664;23.594;2023-07-31T06:52:59;95069.34;;;24.38;64.31
23172;BME280;11754;42.664;23.594;2023-07-31T06:55:25;95071.63;;;24.62;62.87
23172;BME280;11754;42.664;23.594;2023-07-31T06:57:53;95073.03;;;24.80;62.01
23172;BME280;11754;42.664;23.594;2023-07-31T07:00:19;95074.16;;;24.94;61.30
23172;BME280;11754;42.664;23.594;2023-07-31T07:02:45;95076.59;;;25.01;61.79
23172;BME280;11754;42.664;23.594;2023-07-31T07:05:15;95085.28;;;25.13;61.04
23172;BME280;11754;42.664;23.594;2023-07-31T07:07:40;95062.34;;;25.21;59.30
23172;BME280;11754;42.664;23.594;2023-07-31T07:10:06;95076.41;;;25.74;58.28
23172;BME280;11754;42.664;23.594;2023-07-31T07:12:32;95075.34;;;25.90;56.60
23172;BME280;11754;42.664;23.594;2023-07-31T07:14:58;95083.97;;;25.51;57.29
23172;BME280;11754;42.664;23.594;2023-07-31T07:17:24;95081.28;;;25.36;57.53
23172;BME280;11754;42.664;23.594;2023-07-31T07:19:50;95070.75;;;25.45;57.71
23172;BME280;11754;42.664;23.594;2023-07-31T07:22:15;95083.19;;;25.51;58.71
23172;BME280;11754;42.664;23.594;2023-07-31T07:24:41;95078.28;;;25.78;57.54
23172;BME280;11754;42.664;23.594;2023-07-31T07:27:07;95073.69;;;25.28;57.50
23172;BME280;11754;42.664;23.594;2023-07-31T07:29:34;95088.81;;;25.29;57.24
23172;BME280;11754;42.664;23.594;2023-07-31T07:31:59;95073.06;;;24.90;59.01
23172;BME280;11754;42.664;23.594;2023-07-31T07:34:28;95075.19;;;24.88;57.57
23172;BME280;11754;42.664;23.594;2023-07-31T07:36:54;95067.88;;;24.68;58.21
23172;BME280;11754;42.664;23.594;2023-07-31T07:39:19;95072.50;;;24.83;58.37
23172;BME280;11754;42.664;23.594;2023-07-31T07:45:07;95084.75;;;25.11;56.90
23172;BME280;11754;42.664;23.594;2023-07-31T07:47:33;95076.03;;;24.88;58.37
23172;BME280;11754;42.664;23.594;2023-07-31T07:49:58;95058.56;;;25.11;56.28
23172;BME280;11754;42.664;23.594;2023-07-31T07:52:24;95082.53;;;24.92;56.34
23172;BME280;11754;42.664;23.594;2023-07-31T07:54:49;95081.16;;;24.85;56.85
23172;BME280;11754;42.664;23.594;2023-07-31T07:57:15;95086.06;;;25.08;56.34
23172;BME280;11754;42.664;23.594;2023-07-31T07:59:41;95088.25;;;25.16;55.71
23172;BME280;11754;42.664;23.594;2023-07-31T08:02:07;95093.41;;;25.28;55.24
23172;BME280;11754;42.664;23.594;2023-07-31T08:04:32;95079.66;;;25.45;54.57
23172;BME280;11754;42.664;23.594;2023-07-31T08:06:57;95080.19;;;25.62;54.37
23172;BME280;11754;42.664;23.594;2023-07-31T08:09:23;95088.84;;;25.85;53.95
23172;BME280;11754;42.664;23.594;2023-07-31T08:11:48;95091.56;;;25.80;52.91
23172;BME280;11754;42.664;23.594;2023-07-31T08:14:13;95093.72;;;25.57;52.98
23172;BME280;11754;42.664;23.594;2023-07-31T08:16:39;95085.03;;;25.60;52.74
23172;BME280;11754;42.664;23.594;2023-07-31T08:19:04;95080.72;;;25.44;54.51
23172;BME280;11754;42.664;23.594;2023-07-31T08:21:29;95080.75;;;26.00;52.56
23172;BME280;11754;42.664;23.594;2023-07-31T08:23:56;95081.72;;;26.40;51.18
23172;BME280;11754;42.664;23.594;2023-07-31T08:26:21;95081.44;;;26.52;50.17
23172;BME280;11754;42.664;23.594;2023-07-31T08:28:47;95088.72;;;26.56;50.13
23172;BME280;11754;42.664;23.594;2023-07-31T08:31:12;95076.84;;;26.42;50.33
23172;BME280;11754;42.664;23.594;2023-07-31T08:33:38;95076.81;;;26.57;49.11
23172;BME280;11754;42.664;23.594;2023-07-31T08:36:04;95079.50;;;26.63;49.60
23172;BME280;11754;42.664;23.594;2023-07-31T08:38:30;95072.34;;;26.92;48.12
23172;BME280;11754;42.664;23.594;2023-07-31T08:40:57;95073.50;;;27.25;47.54
23172;BME280;11754;42.664;23.594;2023-07-31T08:43:26;95085.91;;;27.71;45.72
23172;BME280;11754;42.664;23.594;2023-07-31T08:45:51;95075.97;;;27.27;45.86
23172;BME280;11754;42.664;23.594;2023-07-31T08:48:17;95069.81;;;27.16;45.94
23172;BME280;11754;42.664;23.594;2023-07-31T08:50:44;95071.03;;;26.79;48.25
23172;BME280;11754;42.664;23.594;2023-07-31T08:53:10;95068.47;;;27.08;46.88
23172;BME280;11754;42.664;23.594;2023-07-31T08:55:38;95070.28;;;27.23;46.81
23172;BME280;11754;42.664;23.594;2023-07-31T08:58:04;95071.59;;;27.31;46.45
23172;BME280;11754;42.664;23.594;2023-07-31T09:00:31;95074.50;;;27.40;46.30
23172;BME280;11754;42.664;23.594;2023-07-31T09:03:03;95058.41;;;27.53;45.80
23172;BME280;11754;42.664;23.594;2023-07-31T09:05:30;95073.00;;;28.21;44.13
23172;BME280;11754;42.664;23.594;2023-07-31T09:07:56;95071.53;;;28.58;42.85
23172;BME280;11754;42.664;23.594;2023-07-31T09:10:23;95076.63;;;28.64;42.35
23172;BME280;11754;42.664;23.594;2023-07-31T09:12:49;95071.78;;;28.61;42.93
23172;BME280;11754;42.664;23.594;2023-07-31T09:15:16;95063.56;;;29.28;41.62
23172;BME280;11754;42.664;23.594;2023-07-31T09:17:41;95072.47;;;29.34;41.38
23172;BME280;11754;42.664;23.594;2023-07-31T09:20:20;95072.59;;;29.05;41.96
23172;BME280;11754;42.664;23.594;2023-07-31T09:22:50;95069.53;;;29.30;41.16
23172;BME280;11754;42.664;23.594;2023-07-31T09:25:20;95065.94;;;29.16;41.70
23172;BME280;11754;42.664;23.594;2023-07-31T09:27:58;95055.22;;;30.09;40.86
23172;BME280;11754;42.664;23.594;2023-07-31T09:30:23;95055.19;;;30.42;39.21
23172;BME280;11754;42.664;23.594;2023-07-31T09:32:50;95055.88;;;30.61;39.18
23172;BME280;11754;42.664;23.594;2023-07-31T09:35:27;95038.59;;;31.43;37.59
23172;BME280;11754;42.664;23.594;2023-07-31T09:37:54;95042.94;;;32.43;35.02
23172;BME280;11754;42.664;23.594;2023-07-31T09:43:03;95037.81;;;33.16;34.75
23172;BME280;11754;42.664;23.594;2023-07-31T09:45:29;95043.13;;;31.70;35.84
23172;BME280;11754;42.664;23.594;2023-07-31T09:47:56;95045.78;;;31.39;36.49
23172;BME280;11754;42.664;23.594;2023-07-31T09:50:23;95041.28;;;31.34;36.00
23172;BME280;11754;42.664;23.594;2023-07-31T09:52:49;95023.19;;;31.61;36.60
23172;BME280;11754;42.664;23.594;2023-07-31T09:55:15;95023.84;;;33.00;34.71
23172;BME280;11754;42.664;23.594;2023-07-31T09:57:44;95030.28;;;33.73;32.72
23172;BME280;11754;42.664;23.594;2023-07-31T10:00:10;95029.44;;;32.95;32.92
23172;BME280;11754;42.664;23.594;2023-07-31T10:02:37;95018.09;;;32.62;34.30
23172;BME280;11754;42.664;23.594;2023-07-31T10:05:04;95026.78;;;33.47;33.33
23172;BME280;11754;42.664;23.594;2023-07-31T10:07:31;95033.13;;;33.86;32.35
23172;BME280;11754;42.664;23.594;2023-07-31T10:09:59;95016.47;;;33.61;31.91
23172;BME280;11754;42.664;23.594;2023-07-31T10:12:29;95020.69;;;34.61;30.75
23172;BME280;11754;42.664;23.594;2023-07-31T10:18:18;95007.41;;;35.44;29.19
23172;BME280;11754;42.664;23.594;2023-07-31T10:20:44;95006.19;;;38.30;26.04
23172;BME280;11754;42.664;23.594;2023-07-31T10:23:10;95007.88;;;39.33;24.56
23172;BME280;11754;42.664;23.594;2023-07-31T10:25:36;95013.81;;;42.84;21.53
23172;BME280;11754;42.664;23.594;2023-07-31T10:28:02;95007.06;;;42.37;21.10
23172;BME280;11754;42.664;23.594;2023-07-31T10:30:29;94997.53;;;43.38;19.77
23172;BME280;11754;42.664;23.594;2023-07-31T10:32:55;94997.53;;;46.10;18.06
23172;BME280;11754;42.664;23.594;2023-07-31T10:35:21;94980.59;;;47.97;16.07
23172;BME280;11754;42.664;23.594;2023-07-31T10:37:50;94996.06;;;47.74;16.34
23172;BME280;11754;42.664;23.594;2023-07-31T10:40:24;94990.09;;;46.48;17.18
23172;BME280;11754;42.664;23.594;2023-07-31T10:42:58;94986.94;;;48.82;15.62
23172;BME280;11754;42.664;23.594;2023-07-31T10:45:32;94980.19;;;45.77;17.30
23172;BME280;11754;42.664;23.594;2023-07-31T10:47:59;94970.56;;;45.92;16.95
23172;BME280;11754;42.664;23.594;2023-07-31T10:50:28;94974.63;;;45.70;17.08
23172;BME280;11754;42.664;23.594;2023-07-31T10:56:16;94960.69;;;48.49;14.49
23172;BME280;11754;42.664;23.594;2023-07-31T10:58:44;94974.28;;;47.24;16.13
23172;BME280;11754;42.664;23.594;2023-07-31T11:01:11;94973.44;;;47.27;15.00
23172;BME280;11754;42.664;23.594;2023-07-31T11:03:46;94961.84;;;45.76;16.74
23172;BME280;11754;42.664;23.594;2023-07-31T11:06:13;94958.97;;;44.81;17.17
23172;BME280;11754;42.664;23.594;2023-07-31T11:08:44;94952.53;;;43.91;17.90
23172;BME280;11754;42.664;23.594;2023-07-31T11:11:11;94948.41;;;45.64;17.09
23172;BME280;11754;42.664;23.594;2023-07-31T11:13:45;94945.22;;;47.86;14.85
23172;BME280;11754;42.664;23.594;2023-07-31T11:16:14;94957.00;;;49.22;13.98
23172;BME280;11754;42.664;23.594;2023-07-31T11:18:41;94945.97;;;48.68;14.42
23172;BME280;11754;42.664;23.594;2023-07-31T11:21:07;94951.00;;;42.55;19.01
23172;BME280;11754;42.664;23.594;2023-07-31T11:23:33;94954.78;;;43.50;19.09
23172;BME280;11754;42.664;23.594;2023-07-31T11:25:59;94945.91;;;45.87;16.65
23172;BME280;11754;42.664;23.594;2023-07-31T11:28:25;94945.84;;;44.39;17.98
23172;BME280;11754;42.664;23.594;2023-07-31T11:30:51;94944.06;;;47.50;15.21
23172;BME280;11754;42.664;23.594;2023-07-31T11:33:16;94938.63;;;49.21;14.50
23172;BME280;11754;42.664;23.594;2023-07-31T11:38:11;94932.75;;;44.75;17.08
23172;BME280;11754;42.664;23.594;2023-07-31T11:40:43;94945.84;;;45.94;16.68
23172;BME280;11754;42.664;23.594;2023-07-31T11:43:09;94939.84;;;43.94;17.45
23172;BME280;11754;42.664;23.594;2023-07-31T11:45:36;94934.31;;;47.34;15.76
23172;BME280;11754;42.664;23.594;2023-07-31T11:48:02;94939.28;;;51.03;12.28
23172;BME280;11754;42.664;23.594;2023-07-31T11:50:28;94934.75;;;45.87;15.32
23172;BME280;11754;42.664;23.594;2023-07-31T11:52:57;94945.91;;;45.87;16.23
23172;BME280;11754;42.664;23.594;2023-07-31T11:55:25;94931.97;;;47.60;14.34
23172;BME280;11754;42.664;23.594;2023-07-31T11:57:51;94935.16;;;49.73;13.52
23172;BME280;11754;42.664;23.594;2023-07-31T12:00:17;94929.53;;;48.47;14.23
23172;BME280;11754;42.664;23.594;2023-07-31T12:02:43;94935.66;;;50.41;13.52
23172;BME280;11754;42.664;23.594;2023-07-31T12:05:12;94926.06;;;49.29;13.33
23172;BME280;11754;42.664;23.594;2023-07-31T12:07:51;94931.31;;;51.60;12.07
23172;BME280;11754;42.664;23.594;2023-07-31T12:10:43;94918.69;;;54.20;10.41
23172;BME280;11754;42.664;23.594;2023-07-31T12:13:20;94911.47;;;52.31;11.32
23172;BME280;11754;42.664;23.594;2023-07-31T12:15:47;94911.84;;;55.35;10.19
23172;BME280;11754;42.664;23.594;2023-07-31T12:18:14;94905.13;;;58.27;9.03
23172;BME280;11754;42.664;23.594;2023-07-31T12:20:44;94897.25;;;60.22;7.93
23172;BME280;11754;42.664;23.594;2023-07-31T12:23:20;94884.84;;;59.88;7.50
23172;BME280;11754;42.664;23.594;2023-07-31T12:26:10;94878.13;;;58.31;7.89
23172;BME280;11754;42.664;23.594;2023-07-31T12:28:42;94885.13;;;55.46;9.60
23172;BME280;11754;42.664;23.594;2023-07-31T12:31:10;94883.41;;;55.39;9.71
23172;BME280;11754;42.664;23.594;2023-07-31T12:33:37;94876.53;;;53.76;10.43
23172;BME280;11754;42.664;23.594;2023-07-31T12:36:07;94875.25;;;54.09;10.88
23172;BME280;11754;42.664;23.594;2023-07-31T12:38:33;94881.56;;;53.28;11.15
23172;BME280;11754;42.664;23.594;2023-07-31T12:40:58;94875.63;;;52.44;11.55
23172;BME280;11754;42.664;23.594;2023-07-31T12:43:24;94867.59;;;54.09;10.99
23172;BME280;11754;42.664;23.594;2023-07-31T12:45:49;94865.69;;;53.00;10.52
23172;BME280;11754;42.664;23.594;2023-07-31T12:48:14;94860.41;;;51.69;11.60
23172;BME280;11754;42.664;23.594;2023-07-31T12:50:40;94868.72;;;49.74;13.08
23172;BME280;11754;42.664;23.594;2023-07-31T12:53:05;94863.59;;;47.72;14.59
23172;BME280;11754;42.664;23.594;2023-07-31T12:55:31;94870.25;;;45.92;16.01
23172;BME280;11754;42.664;23.594;2023-07-31T12:57:59;94871.50;;;43.67;17.97
23172;BME280;11754;42.664;23.594;2023-07-31T13:00:24;94868.59;;;42.48;18.93
23172;BME280;11754;42.664;23.594;2023-07-31T13:02:51;94867.41;;;41.57;19.61
23172;BME280;11754;42.664;23.594;2023-07-31T13:05:16;94874.28;;;41.02;20.53
23172;BME280;11754;42.664;23.594;2023-07-31T13:07:43;94859.69;;;40.49;20.80
23172;BME280;11754;42.664;23.594;2023-07-31T13:10:08;94865.53;;;39.94;21.54
23172;BME280;11754;42.664;23.594;2023-07-31T13:12:34;94869.09;;;39.29;21.90